Time;durP1;ratioP1;P1;durP2;ratioP2;P2;SDS_P1;SDS_P2;PMS_P1;PMS_P2;Temp;Humidity;BMP_temperature;BMP_pressure;BME280_temperature;BME280_humidity;BME280_pressure;Samples;Min_cycle;Max_cycle;Signal;HPM_P1;HPM_P2
2022/03/23 00:01:11;;;;;;;189.10;101.20;;;;;;;3.07;38.50;100727.55;106007;1275;99256;-68
2022/03/23 00:03:41;;;;;;;146.10;79.80;;;;;;;3.00;38.36;100722.39;105955;1277;113251;-68
2022/03/23 00:06:16;;;;;;;141.30;77.60;;;;;;;2.94;38.28;100724.92;105950;1276;99322;-68
2022/03/23 00:08:47;;;;;;;121.30;61.60;;;;;;;2.91;38.29;100723.39;106038;1277;107923;-66
2022/03/23 00:11:15;;;;;;;121.70;60.70;;;;;;;2.86;40.01;100719.09;105988;1277;99212;-64
2022/03/23 00:13:44;;;;;;;127.00;62.40;;;;;;;2.72;42.15;100716.65;106116;1276;99280;-67
2022/03/23 00:16:14;;;;;;;133.60;70.70;;;;;;;2.53;43.75;100721.27;105954;1276;113749;-64
2022/03/23 00:18:44;;;;;;;133.10;63.90;;;;;;;2.32;42.75;100715.41;105992;1277;99100;-64
2022/03/23 00:21:12;;;;;;;116.30;57.70;;;;;;;2.24;42.76;100712.88;105967;1276;108335;-65
2022/03/23 00:23:42;;;;;;;115.70;61.10;;;;;;;2.19;42.34;100710.67;106010;1277;99292;-64
2022/03/23 00:26:14;;;;;;;96.10;50.20;;;;;;;2.18;42.36;100711.39;106001;1277;99318;-63
2022/03/23 00:28:42;;;;;;;102.70;52.70;;;;;;;2.21;43.50;100711.17;105955;1277;113410;-65
2022/03/23 00:31:10;;;;;;;97.50;48.60;;;;;;;2.23;44.21;100708.36;105998;1277;99322;-63
2022/03/23 00:33:39;;;;;;;95.40;47.90;;;;;;;2.27;44.75;100707.27;105981;1277;108314;-66
2022/03/23 00:36:11;;;;;;;86.50;43.90;;;;;;;2.31;44.59;100702.64;105966;1277;99210;-64
2022/03/23 00:38:39;;;;;;;82.60;42.50;;;;;;;2.38;44.20;100699.77;106018;1277;96624;-67
2022/03/23 00:41:09;;;;;;;74.10;38.50;;;;;;;2.45;45.05;100696.70;105988;1277;113207;-66
2022/03/23 00:43:37;;;;;;;69.30;37.50;;;;;;;2.58;44.67;100686.72;106052;1277;99224;-66
2022/03/23 00:46:08;;;;;;;81.00;41.70;;;;;;;2.72;43.59;100686.69;105966;1277;107182;-67
2022/03/23 00:48:37;;;;;;;81.70;44.80;;;;;;;2.80;42.93;100685.52;106083;1277;99168;-66
2022/03/23 00:51:04;;;;;;;83.70;44.80;;;;;;;2.81;42.72;100685.87;106103;1277;99332;-67
2022/03/23 00:53:32;;;;;;;81.80;41.20;;;;;;;2.79;42.34;100685.71;106068;1277;113050;-67
2022/03/23 00:56:04;;;;;;;90.90;45.20;;;;;;;2.76;42.57;100684.36;106083;1277;99178;-66
2022/03/23 00:58:32;;;;;;;81.40;41.70;;;;;;;2.75;42.50;100680.52;105959;1277;108027;-66
2022/03/23 01:01:00;;;;;;;81.30;41.60;;;;;;;2.75;42.57;100676.50;105947;1276;99889;-67
2022/03/23 01:03:30;;;;;;;81.60;42.60;;;;;;;2.76;42.32;100676.84;105982;1277;99294;-66
2022/03/23 01:05:58;;;;;;;86.80;46.00;;;;;;;2.76;42.40;100678.05;105959;1277;113516;-67
2022/03/23 01:08:28;;;;;;;66.00;33.90;;;;;;;2.74;42.59;100670.02;105982;1276;97997;-68
2022/03/23 01:10:58;;;;;;;71.20;37.20;;;;;;;2.67;43.85;100668.54;106051;1277;107859;-66
2022/03/23 01:13:29;;;;;;;69.50;35.50;;;;;;;2.52;45.10;100668.77;106107;1277;96901;-67
2022/03/23 01:15:58;;;;;;;72.40;36.60;;;;;;;2.39;45.86;100664.56;106063;1277;99227;-67
2022/03/23 01:18:26;;;;;;;68.80;35.50;;;;;;;2.30;46.59;100661.88;106009;1277;113404;-68
2022/03/23 01:20:56;;;;;;;76.20;38.40;;;;;;;2.20;46.45;100659.55;105945;1277;98715;-67
2022/03/23 01:23:26;;;;;;;84.50;45.70;;;;;;;2.14;45.71;100656.30;105952;1277;108242;-66
2022/03/23 01:25:55;;;;;;;88.00;42.50;;;;;;;2.10;44.88;100655.46;105973;1277;100392;-67
2022/03/23 01:28:23;;;;;;;74.60;40.10;;;;;;;2.06;45.33;100656.74;105948;1276;99208;-68
2022/03/23 01:30:53;;;;;;;75.00;39.90;;;;;;;2.01;45.05;100652.80;106000;1277;113174;-65
2022/03/23 01:33:23;;;;;;;87.40;45.40;;;;;;;2.00;44.55;100652.63;106049;1277;99209;-66
2022/03/23 01:35:54;;;;;;;92.00;47.70;;;;;;;2.00;44.41;100654.37;105959;1277;107738;-67
2022/03/23 01:38:23;;;;;;;84.90;43.00;;;;;;;1.98;44.16;100652.13;106011;1277;97671;-67
2022/03/23 01:40:56;;;;;;;77.50;40.40;;;;;;;1.94;44.34;100651.45;106176;1277;99310;-67
2022/03/23 01:43:24;;;;;;;75.00;39.00;;;;;;;1.92;44.10;100650.08;106117;1277;113303;-67
2022/03/23 01:45:54;;;;;;;72.40;37.30;;;;;;;1.90;44.24;100645.21;106130;1277;99228;-66
2022/03/23 01:48:25;;;;;;;72.90;37.30;;;;;;;1.91;44.24;100646.77;106120;1277;107972;-67
2022/03/23 01:50:56;;;;;;;68.20;33.50;;;;;;;1.94;43.93;100648.31;106091;1277;99416;-67
2022/03/23 01:53:23;;;;;;;65.30;33.70;;;;;;;1.97;44.40;100644.79;106055;1277;97753;-68
2022/03/23 01:55:56;;;;;;;64.10;34.20;;;;;;;2.01;44.54;100644.37;106079;1277;113429;-65
2022/03/23 01:58:26;;;;;;;68.10;34.00;;;;;;;2.08;44.67;100646.73;106030;1276;99318;-67
2022/03/23 02:00:59;;;;;;;65.70;35.70;;;;;;;2.15;44.73;100646.14;106001;1277;105531;-67
2022/03/23 02:03:28;;;;;;;65.20;35.40;;;;;;;2.19;44.69;100645.21;105945;1276;97710;-66
2022/03/23 02:05:55;;;;;;;70.10;35.60;;;;;;;2.19;44.56;100641.70;105966;1277;99208;-66
2022/03/23 02:08:25;;;;;;;61.30;31.40;;;;;;;2.20;44.38;100642.73;105966;1277;113316;-68
2022/03/23 02:10:55;;;;;;;60.10;30.30;;;;;;;2.24;44.27;100639.91;105923;1276;100417;-68
2022/03/23 02:13:25;;;;;;;60.70;29.20;;;;;;;2.27;44.13;100640.38;105926;1276;108765;-65
2022/03/23 02:15:58;;;;;;;57.90;29.20;;;;;;;2.29;45.27;100639.12;106039;1277;100016;-66
2022/03/23 02:18:26;;;;;;;60.00;30.90;;;;;;;2.27;45.22;100636.35;106124;1277;96668;-65
2022/03/23 02:20:56;;;;;;;65.10;31.90;;;;;;;2.24;44.85;100632.89;106010;1277;113354;-66
2022/03/23 02:23:26;;;;;;;94.10;47.50;;;;;;;2.23;44.88;100636.23;106078;1277;99920;-65
2022/03/23 02:26:02;;;;;;;96.90;50.20;;;;;;;2.18;44.82;100632.45;105905;1277;108686;-66
2022/03/23 02:28:34;;;;;;;105.50;54.40;;;;;;;2.14;44.93;100631.45;105986;1277;99204;-67
2022/03/23 02:31:05;;;;;;;70.50;36.20;;;;;;;2.08;44.99;100628.38;106020;1276;99295;-67
2022/03/23 02:33:33;;;;;;;72.60;38.60;;;;;;;1.97;44.83;100625.55;105900;1277;112868;-66
2022/03/23 02:36:01;;;;;;;71.30;39.70;;;;;;;1.92;44.88;100623.66;105970;1276;99239;-66
2022/03/23 02:38:31;;;;;;;70.00;36.80;;;;;;;1.86;45.54;100624.44;106003;1276;108978;-68
2022/03/23 02:41:01;;;;;;;71.00;37.00;;;;;;;1.70;46.41;100621.48;105959;1277;99436;-65
2022/03/23 02:43:31;;;;;;;76.40;40.00;;;;;;;1.52;47.88;100623.05;105972;1276;99158;-67
2022/03/23 02:46:02;;;;;;;75.70;39.00;;;;;;;1.30;48.88;100625.73;105961;1277;113296;-67
2022/03/23 02:48:32;;;;;;;69.90;36.60;;;;;;;1.11;48.72;100626.06;106039;1277;99017;-66
2022/03/23 02:51:06;;;;;;;67.10;36.20;;;;;;;0.99;47.89;100627.57;105995;1277;106586;-67
2022/03/23 03:02:38;;;;;;;76.30;38.50;;;;;;;1.03;46.76;100618.27;106044;1276;100303;-64
2022/03/23 03:05:10;;;;;;;71.50;37.00;;;;;;;1.05;46.62;100619.48;106095;1277;107838;-68
2022/03/23 03:10:30;;;;;;;71.70;38.50;;;;;;;1.08;46.42;100617.54;106082;1278;99316;-67
2022/03/23 03:12:58;;;;;;;74.30;38.60;;;;;;;1.07;46.30;100620.88;105909;1277;112719;-67
2022/03/23 03:15:28;;;;;;;66.30;35.40;;;;;;;1.05;46.45;100622.09;105939;1276;98160;-65
2022/03/23 03:18:00;;;;;;;61.00;33.30;;;;;;;1.06;46.54;100623.31;105993;1277;108648;-68
2022/03/23 03:20:29;;;;;;;66.50;34.80;;;;;;;1.08;46.61;100624.86;105885;1277;99299;-66
2022/03/23 03:23:00;;;;;;;60.20;32.30;;;;;;;1.10;46.52;100623.11;105970;1277;96536;-67
2022/03/23 03:25:28;;;;;;;57.40;28.80;;;;;;;1.12;46.39;100623.62;105974;1277;113372;-67
2022/03/23 03:27:56;;;;;;;61.20;30.00;;;;;;;1.18;47.21;100621.81;106012;1277;97599;-66
2022/03/23 03:30:24;;;;;;;56.20;29.50;;;;;;;1.28;47.11;100622.41;106013;1278;108692;-66
2022/03/23 03:32:54;;;;;;;60.50;30.80;;;;;;;1.34;46.84;100616.43;105982;1276;99275;-66
2022/03/23 03:35:23;;;;;;;62.40;33.20;;;;;;;1.36;46.74;100621.13;105989;1277;99806;-66
2022/03/23 03:37:51;;;;;;;75.30;36.40;;;;;;;1.36;46.97;100620.60;105396;1277;838102;-66
2022/03/23 03:40:19;;;;;;;65.10;33.80;;;;;;;1.36;46.78;100625.33;106116;1276;97606;-67
2022/03/23 03:42:46;;;;;;;75.90;37.30;;;;;;;1.34;46.75;100623.41;106094;1277;108037;-64
2022/03/23 03:45:14;;;;;;;77.20;39.90;;;;;;;1.33;46.62;100623.61;106066;1277;99350;-66
2022/03/23 03:47:42;;;;;;;72.40;40.50;;;;;;;1.30;46.55;100619.61;106071;1277;99979;-65
2022/03/23 03:50:13;;;;;;;81.30;42.80;;;;;;;1.26;46.55;100619.98;106069;1277;113333;-67
2022/03/23 03:52:41;;;;;;;87.50;46.00;;;;;;;1.19;46.57;100619.90;106075;1277;99307;-67
2022/03/23 03:55:12;;;;;;;79.90;42.40;;;;;;;1.13;46.58;100615.05;106030;1278;107773;-66
2022/03/23 03:57:42;;;;;;;67.20;35.40;;;;;;;1.08;46.63;100612.82;106043;1277;99229;-67
2022/03/23 04:00:15;;;;;;;83.80;44.20;;;;;;;1.05;46.70;100610.39;105921;1277;99223;-66
2022/03/23 04:02:43;;;;;;;64.40;34.20;;;;;;;1.02;46.66;100605.70;106081;1277;113386;-66
2022/03/23 04:05:13;;;;;;;83.90;42.10;;;;;;;0.99;46.60;100603.83;106043;1277;99274;-66
2022/03/23 04:07:43;;;;;;;66.20;35.00;;;;;;;0.98;46.81;100608.55;106052;1277;107713;-66
2022/03/23 04:10:13;;;;;;;66.10;34.50;;;;;;;0.95;46.61;100606.12;105967;1277;96718;-66
2022/03/23 04:12:41;;;;;;;62.90;34.70;;;;;;;0.91;46.54;100605.11;106074;1278;99150;-66
2022/03/23 04:15:10;;;;;;;63.40;31.70;;;;;;;0.86;46.62;100609.33;106085;1276;113241;-65
2022/03/23 04:17:41;;;;;;;62.50;33.40;;;;;;;0.83;47.14;100608.66;106045;1277;97616;-65
2022/03/23 04:20:12;;;;;;;67.90;34.90;;;;;;;0.81;49.00;100608.33;106011;1277;108437;-67
2022/03/23 04:22:42;;;;;;;68.30;36.20;;;;;;;0.62;50.37;100608.64;106101;1276;99303;-68
2022/03/23 04:25:14;;;;;;;76.30;36.70;;;;;;;0.44;50.73;100609.27;106136;1277;99303;-70
2022/03/23 04:28:08;;;;;;;73.90;38.40;;;;;;;0.34;50.88;100612.48;106064;1277;111739;-66
2022/03/23 04:30:41;;;;;;;76.00;39.10;;;;;;;0.24;50.99;100608.16;106071;1278;99310;-67
2022/03/23 04:33:09;;;;;;;77.40;37.60;;;;;;;0.05;52.52;100606.35;106069;1277;107812;-67
2022/03/23 04:35:39;;;;;;;77.30;41.70;;;;;;;-0.20;53.39;100601.73;105999;1277;99377;-67
2022/03/23 04:38:07;;;;;;;77.00;41.90;;;;;;;-0.39;52.42;100601.80;106035;1277;97703;-65
2022/03/23 04:40:37;;;;;;;72.90;38.80;;;;;;;-0.41;52.05;100599.89;106063;1276;113999;-65
2022/03/23 04:43:05;;;;;;;77.40;42.40;;;;;;;-0.39;52.13;100599.02;106021;1277;99339;-66
2022/03/23 04:45:33;;;;;;;76.80;41.40;;;;;;;-0.42;51.19;100600.07;106053;1277;108345;-68
2022/03/23 04:48:06;;;;;;;78.50;38.50;;;;;;;-0.40;50.87;100599.02;106023;1277;97890;-68
2022/03/23 04:50:34;;;;;;;66.70;37.90;;;;;;;-0.34;50.50;100605.45;106044;1277;99184;-68
2022/03/23 04:53:05;;;;;;;77.90;39.40;;;;;;;-0.27;50.28;100605.43;105954;1277;113272;-69
2022/03/23 04:55:34;;;;;;;69.30;36.60;;;;;;;-0.21;50.22;100604.19;106021;1277;99342;-65
2022/03/23 04:58:03;;;;;;;70.60;35.80;;;;;;;-0.16;49.98;100602.08;106020;1277;108975;-69
2022/03/23 05:00:35;;;;;;;75.30;39.50;;;;;;;-0.08;51.03;100601.35;105996;1277;99304;-68
2022/03/23 05:03:05;;;;;;;81.70;43.20;;;;;;;-0.04;51.75;100599.06;106037;1277;97953;-67
2022/03/23 05:05:35;;;;;;;77.90;41.70;;;;;;;-0.00;51.85;100599.59;106087;1277;113301;-67
2022/03/23 05:08:05;;;;;;;82.10;44.30;;;;;;;0.02;52.09;100601.83;106042;1277;99177;-69
2022/03/23 05:10:33;;;;;;;85.40;45.70;;;;;;;0.04;52.55;100593.44;105949;1277;107329;-68
2022/03/23 05:13:03;;;;;;;78.80;42.80;;;;;;;0.03;52.83;100592.58;106002;1277;99417;-69
2022/03/23 05:15:31;;;;;;;72.10;41.60;;;;;;;0.01;52.28;100590.84;106037;1277;99354;-68
2022/03/23 05:17:59;;;;;;;77.40;43.10;;;;;;;0.02;52.09;100582.80;105980;1277;112969;-67
2022/03/23 05:20:31;;;;;;;69.50;37.50;;;;;;;0.08;51.28;100581.39;105968;1277;97020;-68
2022/03/23 05:22:59;;;;;;;59.60;34.30;;;;;;;0.19;51.64;100585.69;106082;1276;107863;-68
2022/03/23 05:25:30;;;;;;;61.70;30.70;;;;;;;0.40;52.37;100581.38;106051;1277;99243;-68
2022/03/23 05:28:08;;;;;;;59.20;32.60;;;;;;;0.68;52.50;100587.30;106080;1276;99208;-65
2022/03/23 05:30:38;;;;;;;57.00;31.20;;;;;;;0.87;52.17;100585.75;106004;1277;112938;-70
2022/03/23 05:33:07;;;;;;;58.80;32.50;;;;;;;1.02;52.13;100583.87;105968;1276;99255;-66
2022/03/23 05:35:35;;;;;;;60.60;33.00;;;;;;;1.15;52.23;100578.86;105842;1277;108537;-69
2022/03/23 05:38:03;;;;;;;61.30;33.10;;;;;;;1.32;52.36;100572.23;105906;1277;99349;-73
2022/03/23 05:40:31;;;;;;;63.00;32.30;;;;;;;1.44;51.98;100570.88;106073;1276;99211;-68
2022/03/23 05:42:59;;;;;;;61.40;33.30;;;;;;;1.53;51.68;100570.60;105921;1277;111908;-69
2022/03/23 05:45:29;;;;;;;58.10;30.10;;;;;;;1.62;51.66;100569.09;105974;1277;98240;-68
2022/03/23 05:47:58;;;;;;;60.40;30.80;;;;;;;1.73;52.27;100568.79;105894;1277;108346;-69
2022/03/23 05:50:26;;;;;;;54.50;30.70;;;;;;;1.88;53.15;100567.73;107474;1276;97494;-69
2022/03/23 05:52:54;;;;;;;61.20;31.90;;;;;;;1.98;53.41;100567.96;105882;1277;99194;-72
2022/03/23 05:55:23;;;;;;;62.10;33.40;;;;;;;2.05;53.68;100566.80;106086;1277;113375;-68
2022/03/23 05:57:51;;;;;;;58.50;31.70;;;;;;;2.10;52.84;100563.92;106642;1277;99237;-71
2022/03/23 06:00:21;;;;;;;56.00;32.90;;;;;;;2.14;52.47;100560.91;105979;1277;108389;-69
2022/03/23 06:02:51;;;;;;;54.90;30.30;;;;;;;2.20;52.31;100561.53;105945;1277;99195;-66
2022/03/23 06:05:21;;;;;;;55.20;27.60;;;;;;;2.28;52.38;100553.70;105960;1277;99381;-70
2022/03/23 06:07:49;;;;;;;53.10;29.70;;;;;;;2.39;52.72;100550.75;106055;1277;112678;-67
2022/03/23 06:10:21;;;;;;;56.30;30.20;;;;;;;2.51;52.95;100549.00;105986;1277;96606;-70
2022/03/23 06:12:49;;;;;;;66.80;32.90;;;;;;;2.60;53.32;100545.53;105928;1276;107510;-70
2022/03/23 06:15:18;;;;;;;58.70;30.80;;;;;;;2.64;53.30;100549.50;105970;1277;99351;-68
2022/03/23 06:17:50;;;;;;;58.70;34.20;;;;;;;2.64;53.65;100547.05;105952;1277;99125;-72
2022/03/23 06:20:17;;;;;;;57.90;31.80;;;;;;;2.59;54.00;100549.58;105978;1277;111443;-70
2022/03/23 06:22:45;;;;;;;60.60;34.20;;;;;;;2.58;53.69;100546.96;106002;1277;99242;-68
2022/03/23 06:25:15;;;;;;;58.30;29.70;;;;;;;2.60;53.94;100556.91;105969;1277;108243;-68
2022/03/23 06:27:43;;;;;;;55.30;29.50;;;;;;;2.64;53.33;100557.71;105966;1277;99208;-68
2022/03/23 06:30:13;;;;;;;54.40;29.70;;;;;;;2.71;53.07;100563.04;105988;1277;99218;-68
2022/03/23 06:32:41;;;;;;;55.30;30.70;;;;;;;2.78;52.91;100562.23;105943;1277;112365;-69
2022/03/23 06:35:11;;;;;;;50.40;26.70;;;;;;;2.87;52.79;100565.75;105980;1277;99217;-70
2022/03/23 06:37:39;;;;;;;49.80;27.60;;;;;;;2.96;52.64;100569.10;105979;1277;107730;-70
2022/03/23 06:40:09;;;;;;;54.00;28.20;;;;;;;3.06;52.39;100568.23;105987;1277;99198;-72
2022/03/23 06:42:45;;;;;;;54.50;29.50;;;;;;;3.14;52.41;100565.64;105990;1277;98338;-71
2022/03/23 06:45:15;;;;;;;51.40;26.00;;;;;;;3.23;52.53;100566.53;105974;1276;112728;-72
2022/03/23 06:47:45;;;;;;;47.20;24.60;;;;;;;3.36;52.21;100562.44;105994;1276;99348;-69
2022/03/23 06:50:15;;;;;;;49.60;26.70;;;;;;;3.52;52.49;100558.61;105986;1277;107719;-70
2022/03/23 06:52:43;;;;;;;50.70;27.70;;;;;;;3.65;52.55;100563.45;106014;1277;99330;-71
2022/03/23 06:55:13;;;;;;;50.50;26.40;;;;;;;3.76;52.45;100569.21;106064;1277;99229;-71
2022/03/23 06:57:41;;;;;;;51.70;28.40;;;;;;;3.87;52.30;100572.84;106026;1277;112792;-68
2022/03/23 07:00:14;;;;;;;52.20;27.90;;;;;;;3.95;52.30;100572.84;106036;1276;97158;-68
2022/03/23 07:02:45;;;;;;;48.60;25.60;;;;;;;4.07;52.03;100568.20;105998;1276;108285;-68
2022/03/23 07:05:17;;;;;;;50.80;25.60;;;;;;;4.22;52.21;100563.14;105959;1276;99249;-70
2022/03/23 07:10:35;;;;;;;47.00;24.10;;;;;;;4.53;52.17;100559.26;106032;1277;113329;-67
2022/03/23 07:13:05;;;;;;;44.90;23.50;;;;;;;4.67;52.22;100559.81;106093;1276;99239;-65
2022/03/23 07:15:33;;;;;;;44.50;23.50;;;;;;;4.82;52.11;100558.04;106041;1277;108290;-67
2022/03/23 07:18:02;;;;;;;56.30;22.60;;;;;;;4.97;52.08;100559.61;106115;1277;96639;-69
2022/03/23 07:20:30;;;;;;;42.20;22.10;;;;;;;5.12;52.14;100559.23;106108;1277;96616;-69
2022/03/23 07:22:58;;;;;;;45.70;23.30;;;;;;;5.29;52.09;100554.91;106127;1277;113462;-68
2022/03/23 07:25:26;;;;;;;42.60;22.40;;;;;;;5.42;52.04;100553.84;105980;1277;99196;-69
2022/03/23 07:27:57;;;;;;;40.40;21.80;;;;;;;5.58;52.01;100556.21;105863;1277;108301;-70
2022/03/23 07:30:27;;;;;;;41.70;21.50;;;;;;;5.71;52.00;100557.09;105989;1277;96650;-70
2022/03/23 07:32:57;;;;;;;41.60;20.30;;;;;;;5.86;52.17;100557.70;105988;1277;96946;-70
2022/03/23 07:35:25;;;;;;;38.30;19.40;;;;;;;6.02;51.93;100556.02;106019;1277;112771;-70
2022/03/23 07:37:55;;;;;;;36.80;19.10;;;;;;;6.16;51.90;100554.39;106007;1277;99233;-70
2022/03/23 07:40:23;;;;;;;36.40;19.30;;;;;;;6.34;51.83;100556.14;105993;1277;108050;-69
2022/03/23 07:42:51;;;;;;;37.90;19.40;;;;;;;6.52;51.96;100552.73;105921;1277;97587;-69
2022/03/23 07:45:21;;;;;;;38.10;18.50;;;;;;;6.73;52.04;100552.23;105971;1277;99196;-70
2022/03/23 07:47:48;;;;;;;38.90;20.60;;;;;;;6.96;51.94;100549.52;106004;1277;112752;-68
2022/03/23 07:50:16;;;;;;;40.10;19.70;;;;;;;7.27;51.99;100542.48;106123;1276;97631;-70
2022/03/23 07:52:45;;;;;;;33.30;17.80;;;;;;;7.66;51.75;100542.84;106103;1277;107831;-68
2022/03/23 07:55:14;;;;;;;35.90;18.70;;;;;;;8.04;51.96;100539.64;106102;1277;96705;-67
2022/03/23 07:57:42;;;;;;;35.20;17.90;;;;;;;8.41;51.85;100532.93;106098;1277;99261;-68
2022/03/23 08:00:15;;;;;;;32.50;16.80;;;;;;;8.76;51.95;100529.42;106114;1277;112546;-70
2022/03/23 08:02:44;;;;;;;35.10;16.80;;;;;;;9.11;51.77;100521.77;106020;1274;99036;-67
2022/03/23 08:05:14;;;;;;;34.60;17.60;;;;;;;9.47;51.72;100522.50;105985;1277;108433;-71
2022/03/23 08:07:45;;;;;;;34.90;17.60;;;;;;;9.81;51.57;100520.77;106080;1277;99336;-67
2022/03/23 08:10:14;;;;;;;34.60;16.90;;;;;;;10.17;51.51;100524.08;106080;1277;99229;-71
2022/03/23 08:12:44;;;;;;;32.80;17.40;;;;;;;10.52;51.48;100523.29;106072;1277;112496;-67
2022/03/23 08:15:12;;;;;;;32.80;18.00;;;;;;;10.96;51.50;100523.80;106067;1277;96547;-65
2022/03/23 08:17:42;;;;;;;33.30;16.40;;;;;;;11.51;51.27;100522.73;106009;1277;108368;-68
2022/03/23 08:23:05;;;;;;;30.60;16.40;;;;;;;13.04;51.07;100510.41;106019;1277;97239;-68
2022/03/23 08:25:41;;;;;;;32.10;16.40;;;;;;;14.06;50.55;100505.42;106076;1277;113526;-69
2022/03/23 08:28:17;;;;;;;33.30;18.60;;;;;;;15.32;50.92;100502.11;106136;1276;99233;-68
2022/03/23 08:30:47;;;;;;;34.30;18.00;;;;;;;16.63;50.38;100495.95;106097;1277;108856;-68
2022/03/23 08:33:16;;;;;;;34.10;17.70;;;;;;;18.09;50.21;100491.27;106094;1276;99223;-68
2022/03/23 08:35:46;;;;;;;33.10;17.90;;;;;;;19.50;50.08;100489.89;106093;1276;99230;-72
2022/03/23 08:38:14;;;;;;;34.10;18.10;;;;;;;20.75;49.84;100487.77;106049;1277;113419;-69
2022/03/23 08:40:45;;;;;;;30.10;16.60;;;;;;;21.85;49.61;100487.48;105993;1277;99236;-70
2022/03/23 08:43:12;;;;;;;29.60;16.80;;;;;;;22.84;49.05;100483.52;106047;1276;107597;-69
2022/03/23 08:45:42;;;;;;;32.30;15.60;;;;;;;23.67;48.42;100486.39;106051;1277;99227;-70
2022/03/23 08:48:13;;;;;;;27.50;16.00;;;;;;;24.37;48.50;100485.87;106001;1277;99185;-70
2022/03/23 08:50:41;;;;;;;28.20;15.20;;;;;;;25.13;48.56;100479.94;105975;1276;114718;-71
2022/03/23 08:53:12;;;;;;;27.70;14.50;;;;;;;25.81;48.36;100476.32;106017;1276;99246;-72
2022/03/23 08:55:41;;;;;;;28.10;15.80;;;;;;;26.43;48.16;100480.77;106009;1274;107741;-69
2022/03/23 08:58:12;;;;;;;25.80;15.60;;;;;;;27.04;47.41;100481.80;106090;1277;99361;-68
2022/03/23 09:00:46;;;;;;;26.30;15.90;;;;;;;27.22;46.60;100482.44;106113;1277;97666;-71
2022/03/23 09:03:15;;;;;;;25.80;14.60;;;;;;;26.99;46.76;100483.78;105938;1277;112742;-70
2022/03/23 09:05:46;;;;;;;26.90;16.00;;;;;;;27.02;46.46;100482.56;105955;1277;100005;-71
2022/03/23 09:08:13;;;;;;;28.50;18.20;;;;;;;26.88;45.81;100480.94;105910;1276;107404;-69
2022/03/23 09:10:41;;;;;;;27.70;16.60;;;;;;;26.35;45.20;100484.44;105948;1277;99215;-71
2022/03/23 09:13:09;;;;;;;28.20;16.80;;;;;;;26.09;44.90;100479.60;105844;1276;99087;-70
2022/03/23 09:15:37;;;;;;;30.10;16.40;;;;;;;25.92;44.86;100483.40;106135;1277;112884;-70
2022/03/23 09:18:06;;;;;;;28.50;16.90;;;;;;;25.90;44.91;100477.77;106016;1277;97035;-72
2022/03/23 09:20:37;;;;;;;27.10;16.80;;;;;;;25.89;43.81;100477.34;106067;1277;107471;-72
2022/03/23 09:23:06;;;;;;;28.80;15.80;;;;;;;25.72;43.45;100475.45;106060;1277;99077;-71
2022/03/23 09:25:34;;;;;;;26.80;16.20;;;;;;;25.56;43.25;100470.23;105955;1277;99165;-69
2022/03/23 09:28:06;;;;;;;27.20;14.50;;;;;;;25.59;42.89;100462.05;105960;1277;114047;-73
2022/03/23 09:30:34;;;;;;;25.50;15.10;;;;;;;25.54;42.33;100460.21;106029;1277;99098;-70
2022/03/23 09:33:02;;;;;;;26.70;14.80;;;;;;;25.64;42.49;100460.09;106011;1277;107652;-70
2022/03/23 09:35:30;;;;;;;23.30;14.00;;;;;;;25.86;42.40;100457.52;106015;1277;99227;-69
2022/03/23 09:38:04;;;;;;;25.60;14.70;;;;;;;26.08;41.21;100454.82;105972;1277;96637;-69
2022/03/23 09:40:33;;;;;;;23.60;14.00;;;;;;;26.14;40.77;100451.64;106031;1277;112504;-69
2022/03/23 09:43:05;;;;;;;28.00;13.90;;;;;;;25.86;40.18;100445.02;106477;1276;97058;-69
2022/03/23 09:45:48;;;;;;;23.80;13.30;;;;;;;25.96;39.89;100442.75;105945;1276;107839;-68
2022/03/23 09:48:21;;;;;;;28.70;13.60;;;;;;;26.31;39.90;100444.91;105902;1275;99326;-68
2022/03/23 09:50:53;;;;;;;27.40;13.80;;;;;;;26.33;39.18;100445.71;105874;1277;96709;-68
2022/03/23 09:53:25;;;;;;;26.00;12.70;;;;;;;26.08;38.78;100436.16;105836;1277;113010;-70
2022/03/23 09:55:53;;;;;;;28.20;12.70;;;;;;;25.75;38.62;100436.05;106040;1277;99336;-69
2022/03/23 09:58:24;;;;;;;21.20;10.30;;;;;;;25.25;38.30;100430.84;106009;1276;106714;-70
2022/03/23 10:00:53;;;;;;;24.10;12.10;;;;;;;24.76;38.54;100427.75;105837;1277;99192;-70
2022/03/23 10:03:48;;;;;;;21.00;10.60;;;;;;;24.52;38.08;100422.38;105858;1277;99303;-69
2022/03/23 10:07:02;;;;;;;20.70;10.10;;;;;;;24.27;37.58;100417.47;106061;1277;113646;-70
2022/03/23 10:09:49;;;;;;;26.60;11.60;;;;;;;24.06;37.30;100412.92;105705;1276;98964;-73
2022/03/23 10:12:53;;;;;;;24.60;11.80;;;;;;;23.96;37.14;100409.80;106408;1277;107668;-72
2022/03/23 10:15:59;;;;;;;22.70;10.90;;;;;;;23.76;37.07;100405.56;105708;1277;98415;-67
2022/03/23 10:18:48;;;;;;;28.70;12.90;;;;;;;23.77;36.98;100403.77;105941;1277;97857;-68
2022/03/23 10:21:25;;;;;;;23.60;11.20;;;;;;;23.83;36.61;100396.10;105940;1277;112596;-66
2022/03/23 10:24:05;;;;;;;22.60;12.60;;;;;;;23.69;36.64;100396.06;105864;1277;96630;-67
2022/03/23 10:26:36;;;;;;;24.40;11.80;;;;;;;23.51;35.81;100391.62;105952;1277;107735;-68
2022/03/23 10:29:24;;;;;;;24.50;12.80;;;;;;;23.17;35.77;100391.85;106142;1277;99265;-68
2022/03/23 10:32:09;;;;;;;25.60;12.00;;;;;;;22.96;35.79;100383.33;106023;1276;99303;-67
2022/03/23 10:34:45;;;;;;;23.90;12.10;;;;;;;22.83;35.46;100384.19;106108;1276;112717;-68
2022/03/23 10:37:20;;;;;;;23.30;11.80;;;;;;;22.69;35.49;100379.08;106060;1276;99472;-67
2022/03/23 10:39:48;;;;;;;23.90;12.70;;;;;;;22.54;34.93;100372.27;105838;1276;106994;-67
2022/03/23 10:42:20;;;;;;;23.50;11.90;;;;;;;22.35;35.05;100372.70;105841;1277;99210;-67
2022/03/23 10:44:50;;;;;;;25.80;12.50;;;;;;;22.22;35.12;100367.36;105977;1277;99303;-66
2022/03/23 10:47:31;;;;;;;24.70;11.80;;;;;;;22.18;35.41;100360.38;105926;1276;113411;-67
2022/03/23 10:50:19;;;;;;;23.80;11.20;;;;;;;22.18;34.97;100358.58;105979;1277;96557;-68
2022/03/23 10:53:01;;;;;;;23.40;11.30;;;;;;;21.98;34.32;100349.68;105967;1277;107497;-68
2022/03/23 10:55:33;;;;;;;23.70;11.60;;;;;;;21.52;33.99;100342.71;106001;1277;96645;-66
2022/03/23 10:58:01;;;;;;;24.60;11.70;;;;;;;21.18;33.71;100336.59;106067;1277;99327;-67
2022/03/23 11:00:42;;;;;;;25.00;11.60;;;;;;;20.91;33.70;100333.80;106094;1277;113386;-67
2022/03/23 11:03:11;;;;;;;25.60;12.20;;;;;;;20.61;33.50;100329.77;106032;1277;99412;-68
2022/03/23 11:05:49;;;;;;;25.20;11.10;;;;;;;20.37;33.43;100323.72;105974;1277;108543;-68
2022/03/23 11:08:24;;;;;;;26.00;11.20;;;;;;;20.24;33.40;100321.84;105917;1277;96647;-68
2022/03/23 11:16:46;;;;;;;22.80;11.10;;;;;;;19.94;32.75;100307.35;106002;1277;99338;-66
2022/03/23 11:19:26;;;;;;;20.90;9.30;;;;;;;19.84;32.76;100300.29;106015;1276;107733;-68
2022/03/23 11:22:12;;;;;;;20.30;9.20;;;;;;;19.87;32.78;100298.60;105912;1277;99325;-66
2022/03/23 11:24:44;;;;;;;22.20;9.60;;;;;;;19.87;32.52;100295.69;105910;1277;96621;-66
2022/03/23 11:27:17;;;;;;;25.40;10.50;;;;;;;19.82;32.45;100293.98;105904;1277;113424;-67
2022/03/23 11:29:48;;;;;;;21.40;9.40;;;;;;;19.76;32.19;100286.98;105979;1277;99415;-67
2022/03/23 11:32:29;;;;;;;21.50;8.80;;;;;;;19.66;32.11;100280.89;105892;1277;107770;-66
2022/03/23 11:35:04;;;;;;;21.00;9.10;;;;;;;19.66;32.31;100274.39;106053;1277;99359;-66
2022/03/23 11:37:34;;;;;;;21.80;9.20;;;;;;;19.80;32.29;100272.42;105900;1277;97935;-64
2022/03/23 11:40:03;;;;;;;21.10;8.70;;;;;;;19.97;32.27;100263.30;105770;1276;114248;-68
2022/03/23 11:42:33;;;;;;;22.40;8.70;;;;;;;20.12;31.95;100258.66;106040;1277;99311;-67
2022/03/23 11:45:02;;;;;;;18.40;7.30;;;;;;;20.22;31.82;100252.48;106065;1277;107818;-67